Hamilton, KS

5:52 PM CDT on July 30, 2014 (GMT -0500)
Toronto, KS (KKSTORON4) Elev 971 ft | 37.80 °N, 95.95 °W | Change Station

Current weather conditions updated 2 minutes ago

Overcast
Overcast
69.1 °F
Feels Like 69.1 °F
N
0.0
Wind Variable Wind from NNE
Gusts 0.0 mph

Tomorrow is forecast to be Much Warmer than today.

Today
High -- | Low -- °F
--% Chance of Precip.
Yesterday
High -- | Low -- °F
Precip. -- in
6:26 AM 8:35 PM
Waxing Crescent, 14% visible
Pressure 30.09 in
Visibility 10.0 miles
Clouds Overcast 5500 ft
Dew Point 66 °F
Humidity 91%
Rainfall 0.09 in
Snow Depth Not available.
UV 2 out of 12
Pollen .80 out of 12
Air Quality Not available.
Flu Activity Not available.
METAR KEMP 302153Z AUTO 02005KT 10SM OVC055 21/18 A3010 RMK AO2 SLP188 T02110178

More Conditions Fewer Conditions

Pressure 30.09 in
Visibility 10.0 miles
Clouds Overcast 5500 ft
Dew Point 66 °F
Humidity 91%
Rainfall 0.09 in
Snow Depth Not available.
UV 2 out of 12
Pollen .80 out of 12
Air Quality Not available.
Flu Activity Not available.
METAR KEMP 302153Z AUTO 02005KT 10SM OVC055 21/18 A3010 RMK AO2 SLP188 T02110178

More Conditions Fewer Conditions

10-Day Weather Forecast

Almanac

Astronomy

Jul. 30, 2014 Rise Set
Actual Time 6:26 AM CDT 8:35 PM CDT
Civil Twilight 5:56 AM CDT 9:05 PM CDT
Nautical Twilight 5:20 AM CDT 9:40 PM CDT
Astronomical Twilight 4:41 AM CDT 10:19 PM CDT
Moon 9:54 AM CDT 10:23 PM CDT
Length of Visible Light 15h 08m
Length of Day
14h 09m
Tomorrow will be 1m 48s shorter.
Waxing Crescent, 14% of the Moon is Illuminated
Today
Waxing Crescent
Aug 3
First Quarter
Aug 10
Full
Aug 17
Last Quarter
Aug 25
New

Today's Extremes

State Highs State Lows

Community

WunderPhotos

Upload Photos

1,739,224 photos uploaded!

Nearby

Snow Depth

Station Depth Elevation
No new snow has been reported.

Earthquake Activity

City Distance Mag. Time & Date
Caldwell, Kansas 106 miles 3.4 5:57 AM CDT
2014-07-26
Minimum magnitude displayed is 2.5.

Coastal Water Temperatures

Place Temperature
No Stations Reporting

Nearby Weather Stations

Station Location Temp. Dew Point Humidity Wind Precip. Elev Updated Type
Toronto, KS, Toronto, KS 69.1 °F 66 °F 91% NNE  at  0.0 mph 0.00 in / hr 971 ft 5:50 PM CDT Normal
Gridley Fire Station, Gridley, KS 69.8 °F 66 °F 89% North  at  2.0 mph 0.00 in / hr 1161 ft 5:49 PM CDT Normal
T-K Weather Station West Hartford, Kansa, Hartford, KS 70.0 °F 65 °F 85% ENE  at  3.7 mph - / hr 1129 ft 5:39 PM CDT Normal
HADS VERDIGRIS RIVER AT TORONTO KS, Toronto, KS 69 °F 66 °F 91% SSE  at  2 mph 0.03 in / hr 960 ft 4:30 PM CDT MADIS
HADS FALL RIVER LAKE NEAR FALL RIVER KS, Fall River, KS 71 °F 71 °F 100% NE  at  8 mph 0.03 in / hr 1020 ft 5:00 PM CDT MADIS

Show More Stations Show Fewer Stations